EYVI/VNO METAR and TAF weather

Enter ICAO airport designator
Station Type Date Time Source
EYVI METAR 2020/07/09 08:20 UTC NOAA

EYVI 090820Z 24012KT 3600 SHRA BKN026CB 12/09 Q1016 NOSIG


Station Type Date Time Source
EYVI Decoded METAR 2020/07/09 08:20 UTC NOAA

Vilnius, Lithuania (EYVI) 54-38N 025-06E 156M
Jul 09, 2020 - 04:20 AM EDT / 2020.07.09 0820 UTC
Wind: from the WSW (240 degrees) at 14 MPH (12 KT):0
Visibility: 2 mile(s):0
Sky conditions: mostly cloudy
Weather: rain showers; Cumulonimbus clouds observed
Temperature: 53 F (12 C)
Dew Point: 48 F (9 C)
Relative Humidity: 81%
Pressure (altimeter): 30.00 in. Hg (1016 hPa)
ob: EYVI 090820Z 24012KT 3600 SHRA BKN026CB 12/09 Q1016 NOSIG
cycle: 8

Station Type Date Time Source
EYVI TAF 2020/07/09 06:24 UTC NOAA

TAF TAF EYVI 090519Z 0906/1006 24012KT 9000 SCT030
TEMPO 0908/0912 BKN020CB
TEMPO 0912/0916 SHRA BKN020CB
BECMG 0916/0918 VRB02KT
BECMG 1000/1002 16012KT BKN020
TEMPO 1002/1006 3000 SHRA BKN005 BKN015CB PROB40
TEMPO 1002/1006 TS

Example: see airport list